Philadelphia, Pennsylvania
Traffic Map
Current Weather Conditions
Philadelphia, Pennsylvania
Scattered Clouds
Scattered Clouds
34°
Feels Like: 27°
Wind Chill: 27° Ceiling: Unl
Heat Index: 34° Visibility: 10mi
Dew Point: 19° Wind: 9mph
Humidity: 54% Direction: 300° (WNW)
Pressure: 29.85in Gusts: 20mph
Raw Report DataKPHL 141754Z 30008G17KT 10SM SCT035 01/M07 A2985 RMK AO2 SLP107 T00111072 10028 20000 51042
Traffic Incident Summary
Active as of:
Severity:
Category:
InformationThere was an issue retrieving the traffic information for this location. Please try a different location or try again shortly.
Advertisements